Time;durP1;ratioP1;P1;durP2;ratioP2;P2;SDS_P1;SDS_P2;PMS_P1;PMS_P2;Temp;Humidity;BMP_temperature;BMP_pressure;BME280_temperature;BME280_humidity;BME280_pressure;Samples;Min_cycle;Max_cycle;Signal;HPM_P1;HPM_P2
2023/01/16 00:01:00;;;;;;;7.25;4.32;;;;;;;0.89;100.00;99594.13;5053210;28;20217;-75
2023/01/16 00:03:26;;;;;;;4.85;3.85;;;;;;;0.96;100.00;99586.69;5053072;28;20057;-75
2023/01/16 00:05:51;;;;;;;4.80;3.45;;;;;;;0.95;100.00;99579.78;5053361;28;20086;-76
2023/01/16 00:08:17;;;;;;;9.65;3.83;;;;;;;0.92;100.00;99575.56;5053484;28;20025;-75
2023/01/16 00:10:44;;;;;;;4.97;3.58;;;;;;;0.85;100.00;99572.56;5053068;28;20388;-75
2023/01/16 00:13:13;;;;;;;9.57;4.30;;;;;;;0.83;100.00;99561.34;5053490;28;20043;-75
2023/01/16 00:15:44;;;;;;;6.90;3.58;;;;;;;0.80;100.00;99548.47;5053063;28;20033;-75
2023/01/16 00:18:10;;;;;;;;;;;;;;;0.78;100.00;99547.75;5053485;28;20044;-75
2023/01/16 00:20:35;;;;;;;5.95;3.30;;;;;;;0.74;100.00;99553.31;5053493;28;19936;-75
2023/01/16 00:23:00;;;;;;;6.00;3.08;;;;;;;0.69;100.00;99548.41;5052913;28;20044;-75
2023/01/16 00:25:26;;;;;;;12.38;3.55;;;;;;;0.66;100.00;99543.38;5053833;28;20060;-75
2023/01/16 00:27:51;;;;;;;10.63;3.15;;;;;;;0.66;100.00;99536.34;5051725;28;20032;-75
2023/01/16 00:30:17;;;;;;;6.05;3.00;;;;;;;0.66;100.00;99544.22;5052795;28;20041;-75
2023/01/16 00:32:42;;;;;;;11.13;3.38;;;;;;;0.75;100.00;99537.50;5053358;28;20064;-74
2023/01/16 00:35:08;;;;;;;5.72;2.90;;;;;;;0.80;100.00;99534.53;5052795;28;20033;-75
2023/01/16 00:37:33;;;;;;;6.18;3.20;;;;;;;0.83;100.00;99526.47;5053080;28;20116;-75
2023/01/16 00:39:58;;;;;;;6.38;3.05;;;;;;;0.84;100.00;99522.91;5052973;28;20037;-75
2023/01/16 00:42:24;;;;;;;11.68;3.90;;;;;;;0.81;100.00;99516.09;5052325;28;20116;-74
2023/01/16 00:44:49;;;;;;;6.35;3.30;;;;;;;0.73;100.00;99507.94;5053047;28;20064;-74
2023/01/16 00:47:14;;;;;;;12.32;3.97;;;;;;;0.73;100.00;99507.13;5054310;28;20032;-74
2023/01/16 00:49:40;;;;;;;9.75;3.58;;;;;;;0.66;100.00;99504.94;5056858;28;20106;-74
2023/01/16 00:52:05;;;;;;;9.00;3.97;;;;;;;0.68;100.00;99489.94;5056469;28;20033;-73
2023/01/16 00:54:31;;;;;;;10.82;4.20;;;;;;;0.66;100.00;99497.09;5056412;28;20037;-74
2023/01/16 00:56:56;;;;;;;10.48;3.63;;;;;;;0.70;100.00;99485.47;5056552;28;20036;-73
2023/01/16 00:59:21;;;;;;;11.38;3.55;;;;;;;0.74;100.00;99474.75;5056374;28;20037;-73
2023/01/16 01:01:47;;;;;;;9.70;4.32;;;;;;;0.75;100.00;99461.56;5056627;28;20106;-73
2023/01/16 01:04:12;;;;;;;10.00;3.97;;;;;;;0.83;100.00;99456.59;5056487;28;20147;-73
2023/01/16 01:06:39;;;;;;;9.95;3.63;;;;;;;0.82;100.00;99444.47;5056108;28;20128;-74
2023/01/16 01:09:04;;;;;;;8.00;3.22;;;;;;;0.81;100.00;99444.56;5056914;28;20079;-74
2023/01/16 01:11:30;;;;;;;14.00;3.80;;;;;;;0.84;100.00;99449.59;5056631;28;20029;-74
2023/01/16 01:13:56;;;;;;;13.45;4.03;;;;;;;0.87;100.00;99444.13;5056648;28;20029;-74
2023/01/16 01:16:21;;;;;;;7.70;3.90;;;;;;;0.86;100.00;99438.03;5056565;28;20066;-74
2023/01/16 01:18:46;;;;;;;14.40;3.92;;;;;;;0.89;100.00;99436.97;5056617;28;20033;-74
2023/01/16 01:21:12;;;;;;;13.90;4.18;;;;;;;0.92;100.00;99434.13;5055881;28;20045;-74
2023/01/16 01:23:37;;;;;;;9.40;3.60;;;;;;;0.96;100.00;99430.34;5054647;28;20462;-74
2023/01/16 01:26:10;;;;;;;14.18;4.18;;;;;;;0.87;100.00;99421.38;5056421;28;20025;-76
2023/01/16 01:28:36;;;;;;;12.80;4.13;;;;;;;0.88;100.00;99419.59;5055899;28;20538;-74
2023/01/16 01:31:03;;;;;;;16.92;5.30;;;;;;;0.90;100.00;99409.00;5055688;28;20120;-74
2023/01/16 01:33:29;;;;;;;16.30;4.85;;;;;;;0.88;100.00;99401.25;5056051;28;20029;-74
2023/01/16 01:35:54;;;;;;;10.05;4.95;;;;;;;0.85;100.00;99386.63;5056043;28;20477;-75
2023/01/16 01:38:19;;;;;;;19.73;4.82;;;;;;;0.81;100.00;99390.41;5055887;28;20036;-74
2023/01/16 01:40:45;;;;;;;12.43;5.07;;;;;;;0.88;100.00;99378.53;5054813;28;20036;-74
2023/01/16 01:43:13;;;;;;;9.93;4.47;;;;;;;0.85;100.00;99375.28;5055855;28;20163;-74
2023/01/16 01:45:39;;;;;;;13.43;4.93;;;;;;;0.92;100.00;99375.69;5056095;28;20044;-74
2023/01/16 01:48:13;;;;;;;15.15;5.35;;;;;;;0.86;100.00;99367.31;5056032;28;20029;-74
2023/01/16 01:50:57;;;;;;;10.90;5.28;;;;;;;0.78;100.00;99367.06;5055677;28;20159;-74
2023/01/16 01:53:30;;;;;;;18.38;5.50;;;;;;;0.85;100.00;99362.19;5055555;28;20056;-74
2023/01/16 01:55:58;;;;;;;22.58;5.00;;;;;;;0.95;100.00;99355.34;5055658;28;20036;-74
2023/01/16 01:58:26;;;;;;;13.40;5.30;;;;;;;1.02;100.00;99353.94;5054695;28;20029;-74
2023/01/16 02:00:58;;;;;;;14.90;5.38;;;;;;;1.20;100.00;99346.47;5055288;28;20033;-75
2023/01/16 02:03:31;;;;;;;10.07;4.90;;;;;;;1.31;100.00;99329.94;5055146;28;20041;-74
2023/01/16 02:06:01;;;;;;;12.35;5.30;;;;;;;1.26;100.00;99329.47;5055392;28;20407;-74
2023/01/16 02:08:31;;;;;;;14.60;5.68;;;;;;;1.20;100.00;99324.69;5055543;28;20033;-74
2023/01/16 02:11:03;;;;;;;17.63;6.43;;;;;;;1.14;100.00;99318.13;5055532;28;20111;-74
2023/01/16 02:13:29;;;;;;;11.65;6.32;;;;;;;1.11;100.00;99315.75;5054772;28;20082;-74
2023/01/16 02:22:01;;;;;;;17.80;6.80;;;;;;;1.40;100.00;99318.78;5055406;28;20051;-74
2023/01/16 02:24:46;;;;;;;16.02;6.85;;;;;;;1.41;100.00;99320.44;5054946;28;20045;-74
2023/01/16 02:27:37;;;;;;;14.45;6.50;;;;;;;1.37;100.00;99315.53;5054716;28;20370;-75
2023/01/16 02:30:25;;;;;;;15.27;6.38;;;;;;;1.35;100.00;99302.56;5055249;28;20028;-74
2023/01/16 02:33:09;;;;;;;13.68;6.15;;;;;;;1.28;100.00;99297.91;5055000;28;20082;-74
2023/01/16 02:35:40;;;;;;;12.93;6.40;;;;;;;1.28;100.00;99293.50;5054829;28;20029;-76
2023/01/16 02:38:28;;;;;;;13.82;6.38;;;;;;;1.23;100.00;99280.75;5055165;28;20075;-74
2023/01/16 02:41:30;;;;;;;13.82;5.40;;;;;;;1.16;100.00;99274.28;5055061;28;20040;-74
2023/01/16 02:44:07;;;;;;;12.65;5.70;;;;;;;1.21;100.00;99266.94;5054417;28;20124;-73
2023/01/16 02:46:42;;;;;;;11.85;5.03;;;;;;;1.17;100.00;99254.19;5054839;28;20040;-74
2023/01/16 02:49:14;;;;;;;10.48;4.90;;;;;;;1.08;100.00;99245.25;5053607;28;20025;-75
2023/01/16 02:51:51;;;;;;;12.27;4.68;;;;;;;1.06;100.00;99241.91;5054219;28;20469;-74
2023/01/16 02:54:26;;;;;;;8.10;4.25;;;;;;;1.03;100.00;99232.50;5054659;28;20033;-74
2023/01/16 02:56:59;;;;;;;10.18;4.00;;;;;;;0.96;100.00;99218.19;5054614;28;20025;-74
2023/01/16 02:59:24;;;;;;;8.90;3.47;;;;;;;0.94;100.00;99214.03;5054380;28;20110;-74
2023/01/16 03:01:50;;;;;;;10.20;4.07;;;;;;;0.93;100.00;99207.13;5054268;28;20064;-74
2023/01/16 03:04:39;;;;;;;11.48;3.75;;;;;;;0.91;100.00;99209.03;5054107;28;20076;-75
2023/01/16 03:07:35;;;;;;;7.45;3.05;;;;;;;0.88;100.00;99200.47;5054716;28;20120;-74
2023/01/16 03:10:07;;;;;;;9.93;2.85;;;;;;;0.85;100.00;99192.00;5054085;28;20357;-74
2023/01/16 03:12:42;;;;;;;8.20;2.63;;;;;;;0.84;100.00;99193.78;5054486;28;20080;-74
2023/01/16 03:15:19;;;;;;;4.75;2.83;;;;;;;0.85;100.00;99194.59;5054457;28;20032;-74
2023/01/16 03:18:14;;;;;;;13.30;3.05;;;;;;;0.85;100.00;99189.38;5053661;28;20032;-73
2023/01/16 03:21:21;;;;;;;7.95;3.17;;;;;;;0.81;100.00;99169.63;5054004;28;20033;-74
2023/01/16 03:24:01;;;;;;;11.32;3.15;;;;;;;0.81;100.00;99172.25;5054380;28;20027;-74
2023/01/16 03:26:35;;;;;;;7.63;2.83;;;;;;;0.80;100.00;99162.72;5054009;28;20410;-74
2023/01/16 03:29:18;;;;;;;7.22;3.00;;;;;;;0.75;100.00;99155.22;5053478;28;20031;-75
2023/01/16 03:32:10;;;;;;;7.10;3.10;;;;;;;0.78;100.00;99146.31;5053717;28;20033;-75
2023/01/16 03:34:57;;;;;;;8.52;3.10;;;;;;;0.75;100.00;99138.66;5053326;28;20040;-76
2023/01/16 03:37:42;;;;;;;8.85;2.40;;;;;;;0.76;100.00;99138.56;5053773;28;20065;-74
2023/01/16 03:40:11;;;;;;;6.45;2.28;;;;;;;0.79;100.00;99127.00;5053455;28;20527;-74
2023/01/16 03:42:50;;;;;;;8.20;2.45;;;;;;;0.82;100.00;99113.66;5053661;28;20036;-74
2023/01/16 03:45:38;;;;;;;7.50;3.08;;;;;;;0.83;100.00;99110.94;5052810;28;20112;-73
2023/01/16 03:48:11;;;;;;;6.53;3.00;;;;;;;0.81;100.00;99101.56;5053899;28;20108;-73
2023/01/16 03:50:38;;;;;;;7.80;3.50;;;;;;;0.82;100.00;99095.34;5053487;28;20051;-74
2023/01/16 03:53:08;;;;;;;9.50;3.50;;;;;;;0.86;100.00;99088.91;5053214;28;20457;-74
2023/01/16 03:55:46;;;;;;;7.45;3.60;;;;;;;0.88;100.00;99071.28;5053062;28;20032;-75
2023/01/16 03:58:24;;;;;;;14.18;4.32;;;;;;;0.94;100.00;99060.34;5053190;28;20025;-74
2023/01/16 04:01:03;;;;;;;10.88;3.88;;;;;;;0.99;100.00;99057.38;5052573;28;20029;-74
2023/01/16 04:03:37;;;;;;;7.20;4.03;;;;;;;1.00;100.00;99051.16;5052840;28;20052;-74
2023/01/16 04:06:35;;;;;;;7.25;3.92;;;;;;;1.02;100.00;99030.94;5052898;28;20079;-74
2023/01/16 04:09:06;;;;;;;9.00;3.50;;;;;;;1.01;100.00;99024.84;5038764;28;20044;-74
2023/01/16 04:11:34;;;;;;;9.93;3.83;;;;;;;0.97;100.00;99012.97;5053164;28;20491;-74
2023/01/16 04:14:01;;;;;;;11.20;4.28;;;;;;;0.95;100.00;99008.81;5053116;28;20060;-74
2023/01/16 04:16:29;;;;;;;6.47;3.58;;;;;;;0.97;100.00;99002.50;5052542;28;20029;-73
2023/01/16 04:18:57;;;;;;;7.55;3.35;;;;;;;0.93;100.00;98993.22;5052841;28;20083;-73
2023/01/16 04:21:26;;;;;;;10.32;3.53;;;;;;;0.91;100.00;98987.28;5052312;28;20029;-73
2023/01/16 04:23:55;;;;;;;7.60;3.63;;;;;;;0.91;100.00;98981.19;5052899;28;20083;-73
2023/01/16 04:26:20;;;;;;;11.63;3.90;;;;;;;0.87;100.00;98970.97;5052840;28;20095;-73
2023/01/16 04:28:45;;;;;;;8.30;3.15;;;;;;;0.86;100.00;98965.84;5052683;28;20461;-73
2023/01/16 04:31:11;;;;;;;6.75;3.15;;;;;;;0.87;100.00;98954.44;5051602;28;20451;-73
2023/01/16 04:33:36;;;;;;;12.68;3.40;;;;;;;0.86;100.00;98948.34;5053059;28;20065;-73
2023/01/16 04:36:01;;;;;;;8.85;3.10;;;;;;;0.91;100.00;98947.16;5052805;28;20029;-73
2023/01/16 04:38:27;;;;;;;9.48;3.13;;;;;;;0.90;100.00;98933.22;5051201;28;20107;-75
2023/01/16 04:40:54;;;;;;;9.60;3.00;;;;;;;0.88;100.00;98925.50;5052972;28;20033;-73
2023/01/16 04:43:19;;;;;;;11.05;3.22;;;;;;;0.94;100.00;98918.94;5052444;28;20033;-73
2023/01/16 04:45:46;;;;;;;8.82;2.88;;;;;;;0.97;100.00;98907.34;5052233;28;20040;-73
2023/01/16 04:48:12;;;;;;;9.65;3.33;;;;;;;1.06;100.00;98898.78;5052205;28;20033;-73
2023/01/16 04:50:37;;;;;;;9.80;2.97;;;;;;;1.09;100.00;98895.91;5051854;28;20159;-73
2023/01/16 04:53:03;;;;;;;7.25;2.53;;;;;;;1.09;100.00;98880.19;5052563;28;20063;-73
2023/01/16 04:55:29;;;;;;;9.75;2.67;;;;;;;1.11;100.00;98877.44;5052783;28;20202;-75
2023/01/16 04:57:55;;;;;;;7.55;2.30;;;;;;;1.16;100.00;98862.97;5052326;28;20533;-73
2023/01/16 05:00:20;;;;;;;10.32;2.60;;;;;;;1.20;100.00;98853.91;5053173;28;20466;-74
2023/01/16 05:02:46;;;;;;;6.90;2.33;;;;;;;1.26;100.00;98844.72;5051921;28;20064;-74
2023/01/16 05:05:11;;;;;;;11.32;2.70;;;;;;;1.29;100.00;98847.06;5052470;28;20045;-73
2023/01/16 05:07:36;;;;;;;10.05;2.60;;;;;;;1.34;100.00;98837.03;5052069;28;20037;-74
2023/01/16 05:10:02;;;;;;;11.80;2.63;;;;;;;1.34;100.00;98813.44;5052270;28;20072;-74
2023/01/16 05:12:28;;;;;;;9.05;2.70;;;;;;;1.35;100.00;98807.25;5052437;28;20041;-74
2023/01/16 05:14:53;;;;;;;9.43;2.75;;;;;;;1.37;100.00;98807.13;5052461;28;20035;-74
2023/01/16 05:17:22;;;;;;;6.93;2.53;;;;;;;1.38;100.00;98779.97;5051187;28;20067;-74
2023/01/16 05:19:48;;;;;;;7.22;2.05;;;;;;;1.40;100.00;98770.16;5052436;28;20033;-74
2023/01/16 05:22:13;;;;;;;6.03;2.40;;;;;;;1.40;100.00;98768.41;5051980;28;20435;-74
2023/01/16 05:24:38;;;;;;;5.55;2.28;;;;;;;1.42;100.00;98755.16;5051980;28;20449;-73
2023/01/16 05:27:04;;;;;;;12.98;2.35;;;;;;;1.42;100.00;98749.91;5051940;28;20120;-74
2023/01/16 05:29:29;;;;;;;16.05;2.15;;;;;;;1.42;100.00;98747.31;5052198;28;20033;-74
2023/01/16 05:31:54;;;;;;;5.30;1.92;;;;;;;1.43;100.00;98741.06;5051945;28;20037;-73
2023/01/16 05:34:20;;;;;;;9.20;2.15;;;;;;;1.43;100.00;98727.97;5055223;28;20052;-73
2023/01/16 05:36:45;;;;;;;4.93;1.85;;;;;;;1.43;100.00;98730.59;5056123;28;20040;-74
2023/01/16 05:39:10;;;;;;;5.75;1.85;;;;;;;1.45;100.00;98720.81;5054656;28;20025;-73
2023/01/16 05:41:36;;;;;;;11.10;2.15;;;;;;;1.46;100.00;98709.34;5055762;28;20037;-74
2023/01/16 05:44:01;;;;;;;6.10;2.00;;;;;;;1.48;100.00;98714.47;5055517;28;20481;-72
2023/01/16 05:46:26;;;;;;;5.78;2.20;;;;;;;1.49;100.00;98703.03;5055738;28;20489;-72
2023/01/16 05:48:52;;;;;;;7.95;2.00;;;;;;;1.50;100.00;98704.69;5055742;28;20029;-72
2023/01/16 05:51:17;;;;;;;9.93;2.03;;;;;;;1.48;100.00;98689.09;5055598;28;20033;-72
2023/01/16 05:53:42;;;;;;;6.70;2.60;;;;;;;1.49;100.00;98688.13;5055611;28;20099;-73
2023/01/16 05:56:10;;;;;;;8.43;2.33;;;;;;;1.50;100.00;98678.47;5055032;28;20078;-72
2023/01/16 05:58:36;;;;;;;5.30;2.00;;;;;;;1.49;100.00;98675.00;5054752;28;20041;-72
2023/01/16 06:01:01;;;;;;;6.45;2.10;;;;;;;1.50;100.00;98668.00;5055691;28;20029;-72
2023/01/16 06:03:27;;;;;;;9.40;2.50;;;;;;;1.49;100.00;98658.47;5038810;28;20064;-72
2023/01/16 06:05:52;;;;;;;7.85;2.30;;;;;;;1.48;100.00;98659.44;5037386;28;20186;-73
2023/01/16 06:08:17;;;;;;;6.65;2.55;;;;;;;1.49;100.00;98648.00;5053995;28;20038;-73
2023/01/16 06:10:44;;;;;;;9.43;2.20;;;;;;;1.49;100.00;98646.19;5055104;28;20033;-73
2023/01/16 06:13:10;;;;;;;7.90;2.15;;;;;;;1.51;100.00;98641.66;5055776;28;20056;-73
2023/01/16 06:15:35;;;;;;;6.80;2.42;;;;;;;1.50;100.00;98636.56;5055414;28;20474;-72
2023/01/16 06:18:01;;;;;;;7.68;2.40;;;;;;;1.52;100.00;98629.38;5055077;28;20060;-72
2023/01/16 06:20:26;;;;;;;6.07;2.42;;;;;;;1.53;100.00;98621.38;5055476;28;20040;-73
2023/01/16 06:22:52;;;;;;;8.32;2.45;;;;;;;1.58;100.00;98615.72;5054963;28;20032;-73
2023/01/16 06:25:17;;;;;;;6.18;2.40;;;;;;;1.58;100.00;98613.09;5054998;28;20033;-72
2023/01/16 06:27:47;;;;;;;9.43;2.45;;;;;;;1.60;100.00;98603.31;5054597;28;20086;-74
2023/01/16 06:30:13;;;;;;;8.05;2.15;;;;;;;1.62;100.00;98600.56;5053681;28;20104;-72
2023/01/16 06:32:38;;;;;;;4.80;2.35;;;;;;;1.63;100.00;98583.84;5055234;28;20029;-72
2023/01/16 06:35:04;;;;;;;12.15;3.00;;;;;;;1.67;100.00;98574.75;5054812;28;20033;-72
2023/01/16 06:37:29;;;;;;;12.13;2.58;;;;;;;1.68;100.00;98571.16;5054503;28;20461;-72
2023/01/16 06:39:56;;;;;;;17.00;2.78;;;;;;;1.66;100.00;98555.59;5054460;28;20116;-72
2023/01/16 06:42:22;;;;;;;6.75;2.30;;;;;;;1.69;100.00;98567.59;5054764;28;20096;-73
2023/01/16 06:44:47;;;;;;;12.27;2.60;;;;;;;1.67;100.00;98557.25;5054110;28;20087;-73
2023/01/16 06:47:12;;;;;;;6.30;2.60;;;;;;;1.68;100.00;98543.16;5054212;28;20033;-72
2023/01/16 06:49:38;;;;;;;13.48;2.90;;;;;;;1.73;100.00;98540.09;5055224;28;20079;-72
2023/01/16 06:52:03;;;;;;;6.28;1.80;;;;;;;1.72;100.00;98536.66;5054453;28;20169;-73
2023/01/16 06:54:29;;;;;;;4.25;2.10;;;;;;;1.73;100.00;98524.38;5053250;28;20516;-72
2023/01/16 06:56:54;;;;;;;5.35;2.05;;;;;;;1.73;100.00;98517.38;5054458;28;20116;-73
2023/01/16 06:59:19;;;;;;;5.15;1.98;;;;;;;1.73;100.00;98508.66;5054615;28;20025;-73
2023/01/16 07:01:45;;;;;;;7.93;2.60;;;;;;;1.73;100.00;98504.25;5054345;28;20090;-73
2023/01/16 07:04:10;;;;;;;7.35;2.50;;;;;;;1.71;100.00;98493.06;5053685;28;20183;-73
2023/01/16 07:06:37;;;;;;;7.25;2.40;;;;;;;1.72;100.00;98491.28;5053978;28;20037;-72
2023/01/16 07:09:02;;;;;;;10.52;2.53;;;;;;;1.71;100.00;98473.88;5054189;28;20143;-73
2023/01/16 07:11:28;;;;;;;10.20;2.33;;;;;;;1.70;100.00;98459.13;5053764;28;20385;-73
2023/01/16 07:22:34;;;;;;;12.93;2.47;;;;;;;1.71;100.00;98453.72;5054486;28;20033;-73
2023/01/16 07:22:35;;;;;;;10.63;2.05;;;;;;;1.74;100.00;98429.03;5054141;28;20059;-72
2023/01/16 07:25:02;;;;;;;6.57;1.77;;;;;;;1.74;100.00;98418.53;5054008;28;20116;-72
2023/01/16 07:27:28;;;;;;;4.50;1.45;;;;;;;1.75;100.00;98405.28;5053897;28;20033;-72
2023/01/16 07:29:54;;;;;;;9.45;2.03;;;;;;;1.77;100.00;98403.34;5053781;28;20037;-72
2023/01/16 07:32:20;;;;;;;15.77;2.15;;;;;;;1.75;100.00;98396.63;5053542;28;20041;-72
2023/01/16 07:34:45;;;;;;;12.25;1.60;;;;;;;1.77;100.00;98381.56;5053521;28;20036;-72
2023/01/16 07:37:11;;;;;;;5.88;1.80;;;;;;;1.77;100.00;98376.31;5053602;28;20117;-72
2023/01/16 07:39:37;;;;;;;4.13;1.70;;;;;;;1.77;100.00;98365.81;5053830;28;20036;-72
2023/01/16 07:42:06;;;;;;;6.13;1.80;;;;;;;1.76;100.00;98353.66;5053502;28;20041;-72
2023/01/16 07:44:32;;;;;;;6.93;1.80;;;;;;;1.78;100.00;98351.75;5053312;28;20097;-72
2023/01/16 07:46:58;;;;;;;5.60;1.98;;;;;;;1.76;100.00;98344.03;5053571;28;20063;-72
2023/01/16 07:49:23;;;;;;;7.15;2.17;;;;;;;1.76;100.00;98325.69;5053892;28;20171;-72
2023/01/16 07:51:48;;;;;;;5.50;1.90;;;;;;;1.77;100.00;98327.31;5053671;28;20044;-72
2023/01/16 07:54:14;;;;;;;8.82;2.03;;;;;;;1.80;100.00;98317.53;5053393;28;20377;-71
2023/01/16 07:56:39;;;;;;;7.38;2.10;;;;;;;1.79;100.00;98311.44;5052936;28;20029;-72
2023/01/16 07:59:05;;;;;;;10.13;2.40;;;;;;;1.81;100.00;98295.56;5052001;28;20044;-73
2023/01/16 08:01:30;;;;;;;8.30;2.63;;;;;;;1.80;100.00;98291.31;5053412;28;20043;-72
2023/01/16 08:03:55;;;;;;;11.90;2.53;;;;;;;1.80;100.00;98292.13;5053417;28;20389;-77
2023/01/16 08:06:21;;;;;;;11.50;2.58;;;;;;;1.82;100.00;98282.31;5053292;28;20366;-72
2023/01/16 08:08:46;;;;;;;5.43;1.90;;;;;;;1.81;100.00;98279.81;5053357;28;20481;-73
2023/01/16 08:13:55;;;;;;;11.43;2.45;;;;;;;1.82;100.00;98271.84;5052868;28;20108;-74
2023/01/16 08:16:21;;;;;;;9.45;2.88;;;;;;;1.83;100.00;98275.28;5053224;28;20033;-72
2023/01/16 08:18:48;;;;;;;8.32;2.50;;;;;;;1.84;100.00;98271.69;5052747;28;20025;-75
2023/01/16 08:21:14;;;;;;;8.57;2.47;;;;;;;1.85;100.00;98268.91;5052510;28;20095;-76
2023/01/16 08:23:40;;;;;;;7.15;2.50;;;;;;;1.86;100.00;98251.38;5052485;28;20025;-75
2023/01/16 08:26:05;;;;;;;4.70;2.20;;;;;;;1.86;100.00;98251.38;5051789;28;20029;-75
2023/01/16 08:28:31;;;;;;;8.55;2.38;;;;;;;1.86;100.00;98252.19;5052705;28;20429;-74
2023/01/16 08:31:03;;;;;;;5.18;2.30;;;;;;;1.87;100.00;98242.53;5052404;28;20100;-74
2023/01/16 08:33:29;;;;;;;6.85;2.70;;;;;;;1.90;100.00;98247.50;5053180;28;20037;-73
2023/01/16 08:35:57;;;;;;;5.57;2.38;;;;;;;1.89;100.00;98240.59;5052999;28;20388;-79
2023/01/16 08:38:22;;;;;;;7.65;2.30;;;;;;;1.88;100.00;98239.78;5052399;28;20044;-74
2023/01/16 08:40:47;;;;;;;3.55;2.42;;;;;;;1.90;100.00;98229.13;5051457;28;20397;-75
2023/01/16 08:51:36;;;;;;;3.28;2.10;;;;;;;1.90;100.00;98202.91;5052121;28;20091;-74
2023/01/16 08:54:02;;;;;;;6.72;2.10;;;;;;;1.91;100.00;98204.53;5052112;28;20087;-74
2023/01/16 08:56:27;;;;;;;6.20;2.15;;;;;;;1.92;100.00;98200.97;5050858;28;20066;-75
2023/01/16 08:58:53;;;;;;;5.75;2.15;;;;;;;1.93;100.00;98192.94;5051973;28;20032;-76
2023/01/16 09:01:19;;;;;;;2.80;2.25;;;;;;;1.94;100.00;98185.88;5052631;28;20116;-74
2023/01/16 09:03:45;;;;;;;6.05;3.33;;;;;;;1.94;100.00;98178.88;5051817;28;20064;-74
2023/01/16 09:06:11;;;;;;;6.07;2.30;;;;;;;1.96;100.00;98180.50;5053833;28;20521;-73
2023/01/16 09:08:36;;;;;;;4.25;2.45;;;;;;;1.98;100.00;98175.94;5055594;28;20072;-74
2023/01/16 09:13:49;;;;;;;7.28;2.40;;;;;;;2.00;100.00;98171.38;5056110;28;20171;-72
2023/01/16 09:16:24;;;;;;;5.70;2.30;;;;;;;2.01;100.00;98162.53;5056615;28;20029;-73
2023/01/16 09:18:51;;;;;;;5.55;2.42;;;;;;;2.03;100.00;98157.94;5056373;28;20041;-73
2023/01/16 09:21:19;;;;;;;6.70;2.88;;;;;;;2.04;100.00;98154.34;5056651;28;20033;-74
2023/01/16 09:23:45;;;;;;;7.13;2.97;;;;;;;2.05;100.00;98146.34;5056981;28;20025;-74
2023/01/16 09:26:10;;;;;;;4.03;2.20;;;;;;;2.05;100.00;98148.97;5057160;28;20059;-74
2023/01/16 09:28:35;;;;;;;5.60;2.65;;;;;;;2.06;100.00;98144.53;5056426;28;20377;-74
2023/01/16 09:31:01;;;;;;;4.60;2.47;;;;;;;2.08;100.00;98138.16;5055088;28;20527;-75
2023/01/16 09:33:26;;;;;;;7.35;2.60;;;;;;;2.10;100.00;98141.44;5056306;28;20136;-74
2023/01/16 09:35:52;;;;;;;6.82;2.40;;;;;;;2.11;100.00;98139.66;5056384;28;20025;-74
2023/01/16 09:38:17;;;;;;;5.80;2.10;;;;;;;2.14;100.00;98125.44;5056292;28;20335;-74
2023/01/16 09:40:50;;;;;;;7.07;2.53;;;;;;;2.14;100.00;98118.38;5056144;28;20029;-75
2023/01/16 09:43:35;;;;;;;3.97;2.92;;;;;;;2.15;100.00;98114.78;5055859;28;20043;-74
2023/01/16 09:46:18;;;;;;;4.10;2.33;;;;;;;2.18;100.00;98114.47;5057608;28;20029;-74
2023/01/16 09:49:05;;;;;;;3.80;2.22;;;;;;;2.19;100.00;98115.28;5056261;28;20024;-73
2023/01/16 09:58:35;;;;;;;3.55;2.40;;;;;;;2.18;100.00;98109.22;5056574;28;20025;-73
2023/01/16 10:00:15;;;;;;;6.20;2.40;;;;;;;2.25;100.00;98110.25;5056515;28;20047;-73
2023/01/16 10:02:40;;;;;;;5.50;2.60;;;;;;;2.26;100.00;98101.41;5055771;28;20079;-75
2023/01/16 10:05:07;;;;;;;6.60;2.90;;;;;;;2.28;100.00;98096.00;5056608;28;20057;-75
2023/01/16 10:07:48;;;;;;;6.63;2.80;;;;;;;2.28;100.00;98091.59;5055430;28;20044;-74
2023/01/16 10:10:20;;;;;;;;;;;;;;;2.28;100.00;98088.97;5056146;28;20122;-75
2023/01/16 10:13:00;;;;;;;4.00;2.42;;;;;;;2.27;100.00;98086.50;5055509;28;19982;-75
2023/01/16 10:15:36;;;;;;;5.18;2.80;;;;;;;2.27;100.00;98081.25;5055161;28;20029;-74
2023/01/16 10:18:44;;;;;;;7.05;3.03;;;;;;;2.26;100.00;98076.97;5054901;28;20044;-74
2023/01/16 10:21:37;;;;;;;4.70;2.78;;;;;;;2.28;100.00;98072.41;5055245;28;20041;-76
2023/01/16 10:24:11;;;;;;;5.30;3.10;;;;;;;2.27;100.00;98057.66;5054424;28;20426;-77
2023/01/16 10:26:52;;;;;;;5.47;3.00;;;;;;;2.29;100.00;98063.56;5055531;28;20493;-75
2023/01/16 10:29:22;;;;;;;9.23;2.97;;;;;;;2.28;100.00;98060.13;5055121;28;20033;-75
2023/01/16 10:31:57;;;;;;;5.35;3.00;;;;;;;2.29;100.00;98058.31;5055211;28;20025;-75
2023/01/16 10:34:31;;;;;;;5.15;3.00;;;;;;;2.31;100.00;98045.84;5055088;28;20116;-75
2023/01/16 10:36:58;;;;;;;4.50;2.88;;;;;;;2.32;100.00;98047.50;5055138;28;20057;-75
2023/01/16 10:39:30;;;;;;;8.15;3.30;;;;;;;2.32;100.00;98037.00;5054909;28;20119;-77
2023/01/16 10:50:39;;;;;;;8.60;3.40;;;;;;;2.42;100.00;98011.47;5055147;28;20060;-75
2023/01/16 10:53:08;;;;;;;5.57;3.10;;;;;;;2.46;100.00;98011.97;5054455;28;20048;-76
2023/01/16 10:55:37;;;;;;;4.20;3.05;;;;;;;2.46;100.00;98010.19;5053754;28;20444;-77
2023/01/16 10:58:16;;;;;;;5.40;3.30;;;;;;;2.47;100.00;98018.88;5054375;28;20389;-76
2023/01/16 11:00:42;;;;;;;6.80;3.00;;;;;;;2.49;100.00;98021.34;5053835;28;20036;-76
2023/01/16 11:03:17;;;;;;;7.15;3.40;;;;;;;2.50;100.00;98015.13;5054322;28;20382;-76
2023/01/16 11:05:43;;;;;;;5.85;3.25;;;;;;;2.52;100.00;98013.16;5055444;28;20114;-76
2023/01/16 11:08:15;;;;;;;4.35;3.25;;;;;;;2.53;100.00;98009.56;5054824;28;20033;-73
2023/01/16 11:10:43;;;;;;;4.00;3.05;;;;;;;2.55;100.00;98004.97;5054919;28;20067;-73
2023/01/16 11:18:56;;;;;;;9.50;3.45;;;;;;;2.62;100.00;97984.97;5054985;28;20052;-76
2023/01/16 11:21:29;;;;;;;5.50;3.55;;;;;;;2.67;100.00;97979.25;5054475;28;20036;-76
2023/01/16 11:23:58;;;;;;;4.10;3.17;;;;;;;2.71;100.00;97975.34;5054595;28;20094;-76
2023/01/16 11:26:24;;;;;;;4.38;2.90;;;;;;;2.73;100.00;97979.47;5052785;28;20033;-75
2023/01/16 11:28:50;;;;;;;5.88;2.95;;;;;;;2.77;100.00;97977.31;5053680;28;20048;-75
2023/01/16 11:31:20;;;;;;;4.60;2.80;;;;;;;2.78;100.00;97963.22;5053774;28;20457;-75
2023/01/16 11:33:54;;;;;;;4.20;2.88;;;;;;;2.82;100.00;97959.28;5054283;28;20033;-75
2023/01/16 11:36:21;;;;;;;5.00;2.60;;;;;;;2.86;100.00;97959.78;5054334;28;20412;-75
2023/01/16 11:38:48;;;;;;;2.38;2.10;;;;;;;2.83;100.00;97956.50;5054043;28;20029;-75
2023/01/16 11:41:19;;;;;;;5.32;2.58;;;;;;;2.89;100.00;97957.66;5054439;28;20040;-75
2023/01/16 11:46:55;;;;;;;2.90;2.20;;;;;;;2.97;100.00;97944.56;5054002;28;20134;-75
2023/01/16 11:49:26;;;;;;;5.05;2.22;;;;;;;3.01;100.00;97931.91;5053579;28;20047;-76
2023/01/16 11:51:54;;;;;;;4.30;2.22;;;;;;;3.03;100.00;97926.50;5054371;28;20021;-76
2023/01/16 11:54:26;;;;;;;4.95;2.70;;;;;;;3.05;100.00;97925.34;5053711;28;20120;-74
2023/01/16 11:57:21;;;;;;;7.25;2.45;;;;;;;3.06;100.00;97924.38;5053925;28;20028;-75
2023/01/16 12:00:09;;;;;;;4.32;2.38;;;;;;;3.06;100.00;97918.28;5053720;28;20428;-76
2023/01/16 12:03:06;;;;;;;2.67;2.30;;;;;;;3.05;100.00;97917.47;5053972;28;20115;-75
2023/01/16 12:05:53;;;;;;;5.28;2.45;;;;;;;3.09;100.00;97923.22;5053777;28;20474;-75
2023/01/16 12:08:28;;;;;;;3.28;2.20;;;;;;;3.09;100.00;97910.06;5053208;28;20461;-76
2023/01/16 12:11:04;;;;;;;3.05;1.92;;;;;;;3.09;100.00;97905.66;5053226;28;20060;-76
2023/01/16 12:16:44;;;;;;;3.30;1.50;;;;;;;3.09;100.00;97907.44;5053847;28;20052;-75
2023/01/16 12:19:21;;;;;;;1.60;1.40;;;;;;;3.13;100.00;97893.00;5053595;28;20043;-75
2023/01/16 12:22:01;;;;;;;3.17;1.67;;;;;;;3.15;100.00;97884.00;5052406;28;20033;-75
2023/01/16 12:24:27;;;;;;;1.90;1.65;;;;;;;3.15;100.00;97885.78;5053785;28;20029;-75
2023/01/16 12:27:11;;;;;;;1.77;1.67;;;;;;;3.15;100.00;97883.16;5053952;28;20105;-77
2023/01/16 12:29:45;;;;;;;4.30;1.90;;;;;;;3.19;100.00;97881.84;5052876;28;20068;-75
2023/01/16 12:32:10;;;;;;;3.08;1.83;;;;;;;3.28;100.00;97880.84;5053414;28;20087;-76
2023/01/16 12:34:55;;;;;;;3.25;1.95;;;;;;;3.35;100.00;97868.69;5052734;28;20028;-75
2023/01/16 12:37:42;;;;;;;2.72;1.60;;;;;;;3.45;100.00;97875.56;5053293;28;20037;-75